createdAt,value
2017-03-29T00:00:00.788Z,10.8
2017-03-29T00:00:05.239Z,10.81
2017-03-29T00:00:09.572Z,10.8
2017-03-29T00:00:13.999Z,10.8
2017-03-29T00:00:18.191Z,10.79
2017-03-29T00:00:22.505Z,10.8
2017-03-29T00:00:26.930Z,10.8
2017-03-29T00:00:31.257Z,10.79
2017-03-29T00:00:35.685Z,10.79
2017-03-29T00:00:39.996Z,10.79
2017-03-29T00:00:44.463Z,10.79
2017-03-29T00:00:48.892Z,10.78
2017-03-29T00:00:53.317Z,10.78
2017-03-29T00:00:57.747Z,10.79
2017-03-29T00:01:02.540Z,10.78
2017-03-29T00:01:06.967Z,10.78
2017-03-29T00:01:11.279Z,10.78
2017-03-29T00:01:15.708Z,10.78
2017-03-29T00:01:20.139Z,10.78
2017-03-29T00:01:24.450Z,10.77
2017-03-29T00:01:28.760Z,10.78
2017-03-29T00:01:33.064Z,10.78
2017-03-29T00:01:37.497Z,10.77
2017-03-29T00:01:41.921Z,10.77
2017-03-29T00:01:46.349Z,10.77
2017-03-29T00:01:50.784Z,10.77
2017-03-29T00:01:55.101Z,10.77
2017-03-29T00:01:59.527Z,10.76
2017-03-29T00:02:03.953Z,10.76
2017-03-29T00:02:08.032Z,10.76
2017-03-29T00:02:12.460Z,10.76
2017-03-29T00:02:16.766Z,10.76
2017-03-29T00:02:21.198Z,10.75
2017-03-29T00:02:25.420Z,10.75
2017-03-29T00:02:29.846Z,10.74
2017-03-29T00:02:34.152Z,10.75
2017-03-29T00:02:38.583Z,10.74
2017-03-29T00:02:43.011Z,10.76
2017-03-29T00:02:47.463Z,10.75
2017-03-29T00:02:51.888Z,10.75
2017-03-29T00:02:56.315Z,10.75
2017-03-29T00:03:00.737Z,10.75
2017-03-29T00:03:05.487Z,10.74
2017-03-29T00:03:09.680Z,10.74
2017-03-29T00:03:14.104Z,10.74
2017-03-29T00:03:18.418Z,10.75
2017-03-29T00:03:22.845Z,10.74
2017-03-29T00:03:27.270Z,10.75
2017-03-29T00:03:31.697Z,10.74
2017-03-29T00:03:36.045Z,10.75
2017-03-29T00:03:40.469Z,10.74
2017-03-29T00:03:44.897Z,10.74
2017-03-29T00:03:49.322Z,10.75
2017-03-29T00:03:53.753Z,10.74
2017-03-29T00:03:58.174Z,10.74
2017-03-29T00:04:02.607Z,10.74
2017-03-29T00:04:06.918Z,10.73
2017-03-29T00:04:11.345Z,10.74
2017-03-29T00:04:15.801Z,10.74
2017-03-29T00:04:20.224Z,10.73
2017-03-29T00:04:24.647Z,10.72
2017-03-29T00:04:28.958Z,10.73
2017-03-29T00:04:33.266Z,10.73
2017-03-29T00:04:37.691Z,10.74
2017-03-29T00:04:41.995Z,10.73
2017-03-29T00:04:46.303Z,10.72
2017-03-29T00:04:50.736Z,10.73
2017-03-29T00:04:55.160Z,10.73
2017-03-29T00:04:59.588Z,10.74
2017-03-29T00:05:03.901Z,10.72
2017-03-29T00:05:08.245Z,10.72
2017-03-29T00:05:12.667Z,10.72
2017-03-29T00:05:16.754Z,10.72
2017-03-29T00:05:21.074Z,10.72
2017-03-29T00:05:25.392Z,10.71
2017-03-29T00:05:29.588Z,10.71
2017-03-29T00:05:33.902Z,10.71
2017-03-29T00:05:38.340Z,10.71
2017-03-29T00:05:42.685Z,10.71
2017-03-29T00:05:47.010Z,10.72
2017-03-29T00:05:51.321Z,10.7
2017-03-29T00:05:55.747Z,10.7
2017-03-29T00:06:00.178Z,10.7
2017-03-29T00:06:04.393Z,10.69
2017-03-29T00:06:08.829Z,10.7
2017-03-29T00:06:13.260Z,10.69
2017-03-29T00:06:17.463Z,10.69
2017-03-29T00:06:21.891Z,10.7
2017-03-29T00:06:26.318Z,10.69
2017-03-29T00:06:30.622Z,10.69
2017-03-29T00:06:34.934Z,10.7
2017-03-29T00:06:39.360Z,10.69
2017-03-29T00:06:43.789Z,10.7
2017-03-29T00:06:48.106Z,10.69
2017-03-29T00:06:52.417Z,10.69
2017-03-29T00:06:56.847Z,10.69
2017-03-29T00:07:00.930Z,10.69
2017-03-29T00:07:05.133Z,10.68
2017-03-29T00:07:09.464Z,10.68
2017-03-29T00:07:13.894Z,10.67
2017-03-29T00:07:18.324Z,10.68
2017-03-29T00:07:22.664Z,10.67
2017-03-29T00:07:26.971Z,10.68
2017-03-29T00:07:31.400Z,10.67
2017-03-29T00:07:35.714Z,10.68
2017-03-29T00:07:40.036Z,10.68
2017-03-29T00:07:44.469Z,10.67
2017-03-29T00:07:48.792Z,10.67
2017-03-29T00:07:53.246Z,10.67
2017-03-29T00:07:57.676Z,10.66
2017-03-29T00:08:01.991Z,10.67
2017-03-29T00:08:06.461Z,10.67
2017-03-29T00:08:10.774Z,10.66
2017-03-29T00:08:15.228Z,10.67
2017-03-29T00:08:19.544Z,10.66
2017-03-29T00:08:23.858Z,10.66
2017-03-29T00:08:28.306Z,10.66
2017-03-29T00:08:32.639Z,10.66
2017-03-29T00:08:37.061Z,10.66
2017-03-29T00:08:41.250Z,10.66
2017-03-29T00:08:45.565Z,10.66
2017-03-29T00:08:49.765Z,10.66
2017-03-29T00:08:54.078Z,10.65
2017-03-29T00:08:58.388Z,10.66
2017-03-29T00:09:03.056Z,10.66
2017-03-29T00:09:07.419Z,10.66
2017-03-29T00:09:11.726Z,10.66
2017-03-29T00:09:16.170Z,10.66
2017-03-29T00:09:20.607Z,10.66
2017-03-29T00:09:25.047Z,10.66
2017-03-29T00:09:29.384Z,10.65
2017-03-29T00:09:33.702Z,10.65
2017-03-29T00:09:38.010Z,10.65
2017-03-29T00:09:42.328Z,10.65
2017-03-29T00:09:46.765Z,10.65
2017-03-29T00:09:50.995Z,10.66
2017-03-29T00:09:55.422Z,10.66
2017-03-29T00:09:59.864Z,10.66
2017-03-29T00:10:04.181Z,10.66
2017-03-29T00:10:08.607Z,10.66
2017-03-29T00:10:13.039Z,10.66
2017-03-29T00:10:17.467Z,10.67
2017-03-29T00:10:21.662Z,10.66
2017-03-29T00:10:25.860Z,10.67
2017-03-29T00:10:30.300Z,10.66
2017-03-29T00:10:34.727Z,10.67
2017-03-29T00:10:38.916Z,10.66
2017-03-29T00:10:43.347Z,10.66
2017-03-29T00:10:47.657Z,10.66
2017-03-29T00:10:52.089Z,10.66
2017-03-29T00:10:56.523Z,10.67
2017-03-29T00:11:00.832Z,10.66
2017-03-29T00:11:05.518Z,10.67
2017-03-29T00:11:09.989Z,10.67
2017-03-29T00:11:14.415Z,10.66
2017-03-29T00:11:18.843Z,10.67
2017-03-29T00:11:23.278Z,10.67
2017-03-29T00:11:27.587Z,10.67
2017-03-29T00:11:32.025Z,10.67
2017-03-29T00:11:36.453Z,10.67
2017-03-29T00:11:40.790Z,10.67
2017-03-29T00:11:45.213Z,10.67
2017-03-29T00:11:49.649Z,10.67
2017-03-29T00:11:54.077Z,10.67
2017-03-29T00:11:58.514Z,10.66
2017-03-29T00:12:02.936Z,10.67
2017-03-29T00:12:07.014Z,10.67
2017-03-29T00:12:11.322Z,10.66
2017-03-29T00:12:15.747Z,10.67
2017-03-29T00:12:20.062Z,10.66
2017-03-29T00:12:24.254Z,10.66
2017-03-29T00:12:28.563Z,10.67
2017-03-29T00:12:32.991Z,10.66
2017-03-29T00:12:37.418Z,10.67
2017-03-29T00:12:41.840Z,10.67
2017-03-29T00:12:46.265Z,10.66
2017-03-29T00:12:50.690Z,10.67
2017-03-29T00:12:55.111Z,10.67
2017-03-29T00:12:59.532Z,10.67
2017-03-29T00:13:04.207Z,10.67
2017-03-29T00:13:08.400Z,10.67
2017-03-29T00:13:12.600Z,10.67
2017-03-29T00:13:17.023Z,10.67
2017-03-29T00:13:21.449Z,10.66
2017-03-29T00:13:25.879Z,10.67
2017-03-29T00:13:30.303Z,10.66
2017-03-29T00:13:34.736Z,10.66
2017-03-29T00:13:39.161Z,10.67
2017-03-29T00:13:43.584Z,10.66
2017-03-29T00:13:47.894Z,10.66
2017-03-29T00:13:52.322Z,10.66
2017-03-29T00:13:56.752Z,10.67
2017-03-29T00:14:01.178Z,10.67
2017-03-29T00:14:05.635Z,10.66
2017-03-29T00:14:10.057Z,10.66
2017-03-29T00:14:14.244Z,10.67
2017-03-29T00:14:18.672Z,10.67
2017-03-29T00:14:22.982Z,10.66
2017-03-29T00:14:27.288Z,10.67
2017-03-29T00:14:31.598Z,10.66
2017-03-29T00:14:35.915Z,10.67
2017-03-29T00:14:40.237Z,10.67
2017-03-29T00:14:44.555Z,10.67
2017-03-29T00:14:48.985Z,10.67
2017-03-29T00:14:53.435Z,10.66
2017-03-29T00:14:57.869Z,10.66
2017-03-29T00:15:02.556Z,10.67
2017-03-29T00:15:06.869Z,10.67
2017-03-29T00:15:11.310Z,10.67
2017-03-29T00:15:15.752Z,10.67
2017-03-29T00:15:20.074Z,10.67
2017-03-29T00:15:24.505Z,10.67
2017-03-29T00:15:28.732Z,10.66
2017-03-29T00:15:33.156Z,10.67
2017-03-29T00:15:37.581Z,10.67
2017-03-29T00:15:41.775Z,10.66
2017-03-29T00:15:46.091Z,10.67
2017-03-29T00:15:50.518Z,10.67
2017-03-29T00:15:54.837Z,10.67
2017-03-29T00:15:59.267Z,10.67
2017-03-29T00:16:03.695Z,10.67
2017-03-29T00:16:07.880Z,10.67
2017-03-29T00:16:12.185Z,10.67
2017-03-29T00:16:16.613Z,10.67
2017-03-29T00:16:20.951Z,10.66
2017-03-29T00:16:25.270Z,10.67
2017-03-29T00:16:29.593Z,10.67
2017-03-29T00:16:33.789Z,10.66
2017-03-29T00:16:38.105Z,10.67
2017-03-29T00:16:42.408Z,10.67
2017-03-29T00:16:46.482Z,10.67
2017-03-29T00:16:50.908Z,10.67
2017-03-29T00:16:55.362Z,10.66
2017-03-29T00:16:59.668Z,10.67
2017-03-29T00:17:04.145Z,10.66
2017-03-29T00:17:08.453Z,10.66
2017-03-29T00:17:12.765Z,10.67
2017-03-29T00:17:17.074Z,10.67
2017-03-29T00:17:21.495Z,10.67
2017-03-29T00:17:25.919Z,10.67
2017-03-29T00:17:30.227Z,10.67
2017-03-29T00:17:34.650Z,10.67
2017-03-29T00:17:38.954Z,10.66
2017-03-29T00:17:43.382Z,10.66
2017-03-29T00:17:47.812Z,10.66
2017-03-29T00:17:52.238Z,10.66
2017-03-29T00:17:56.665Z,10.66
2017-03-29T00:18:01.093Z,10.66
2017-03-29T00:18:05.617Z,10.67
2017-03-29T00:18:09.806Z,10.66
2017-03-29T00:18:14.112Z,10.67
2017-03-29T00:18:18.547Z,10.67
2017-03-29T00:18:22.969Z,10.67
2017-03-29T00:18:27.397Z,10.67
2017-03-29T00:18:31.819Z,10.66
2017-03-29T00:18:36.010Z,10.67
2017-03-29T00:18:40.431Z,10.67
2017-03-29T00:18:44.767Z,10.67
2017-03-29T00:18:49.194Z,10.66
2017-03-29T00:18:53.618Z,10.68
2017-03-29T00:18:58.039Z,10.67
2017-03-29T00:19:02.822Z,10.66
2017-03-29T00:19:07.245Z,10.66
2017-03-29T00:19:11.666Z,10.67
2017-03-29T00:19:16.091Z,10.66
2017-03-29T00:19:20.397Z,10.66
2017-03-29T00:19:24.710Z,10.67
2017-03-29T00:19:28.904Z,10.67
2017-03-29T00:19:33.331Z,10.66
2017-03-29T00:19:37.766Z,10.67
2017-03-29T00:19:42.107Z,10.67
2017-03-29T00:19:46.530Z,10.67
2017-03-29T00:19:50.845Z,10.67
2017-03-29T00:19:55.273Z,10.67
2017-03-29T00:19:59.583Z,10.67
2017-03-29T00:20:04.044Z,10.67
2017-03-29T00:20:08.352Z,10.67
2017-03-29T00:20:12.683Z,10.67
2017-03-29T00:20:16.999Z,10.66
2017-03-29T00:20:21.316Z,10.67
2017-03-29T00:20:25.633Z,10.67
2017-03-29T00:20:30.057Z,10.67
2017-03-29T00:20:34.487Z,10.66
2017-03-29T00:20:38.909Z,10.66
2017-03-29T00:20:43.345Z,10.67
2017-03-29T00:20:47.774Z,10.66
2017-03-29T00:20:52.205Z,10.67
2017-03-29T00:20:56.637Z,10.66
2017-03-29T00:21:01.087Z,10.67
2017-03-29T00:21:05.517Z,10.66
2017-03-29T00:21:09.951Z,10.66
2017-03-29T00:21:14.274Z,10.66
2017-03-29T00:21:18.235Z,10.66
2017-03-29T00:21:22.665Z,10.66
2017-03-29T00:21:26.859Z,10.66
2017-03-29T00:21:31.288Z,10.66
2017-03-29T00:21:35.599Z,10.66
2017-03-29T00:21:39.907Z,10.66
2017-03-29T00:21:44.350Z,10.66
2017-03-29T00:21:48.786Z,10.66
2017-03-29T00:21:53.213Z,10.66
2017-03-29T00:21:57.634Z,10.66
2017-03-29T00:22:02.051Z,10.66
2017-03-29T00:22:06.367Z,10.66
2017-03-29T00:22:10.674Z,10.66
2017-03-29T00:22:14.997Z,10.66
2017-03-29T00:22:19.188Z,10.67
2017-03-29T00:22:23.618Z,10.67
2017-03-29T00:22:28.044Z,10.67
2017-03-29T00:22:32.355Z,10.66
2017-03-29T00:22:36.782Z,10.66
2017-03-29T00:22:41.214Z,10.66
2017-03-29T00:22:45.633Z,10.66
2017-03-29T00:22:50.060Z,10.67
2017-03-29T00:22:54.501Z,10.66
2017-03-29T00:22:58.925Z,10.66
2017-03-29T00:23:03.655Z,10.66
2017-03-29T00:23:08.084Z,10.66
2017-03-29T00:23:12.396Z,10.66
2017-03-29T00:23:16.820Z,10.67
2017-03-29T00:23:21.246Z,10.66
2017-03-29T00:23:25.671Z,10.67
2017-03-29T00:23:29.974Z,10.66
2017-03-29T00:23:34.277Z,10.66
2017-03-29T00:23:38.702Z,10.66
2017-03-29T00:23:43.137Z,10.66
2017-03-29T00:23:47.439Z,10.67
2017-03-29T00:23:51.865Z,10.66
2017-03-29T00:23:56.296Z,10.66
2017-03-29T00:24:00.725Z,10.67
2017-03-29T00:24:05.334Z,10.67
2017-03-29T00:24:09.697Z,10.65
2017-03-29T00:24:14.153Z,10.66
2017-03-29T00:24:18.576Z,10.66
2017-03-29T00:24:22.998Z,10.66
2017-03-29T00:24:27.427Z,10.66
2017-03-29T00:24:31.858Z,10.66
2017-03-29T00:24:36.166Z,10.66
2017-03-29T00:24:40.471Z,10.66
2017-03-29T00:24:44.912Z,10.66
2017-03-29T00:24:49.344Z,10.67
2017-03-29T00:24:53.658Z,10.67
2017-03-29T00:24:58.089Z,10.67
2017-03-29T00:25:02.669Z,10.66
2017-03-29T00:25:07.101Z,10.66
2017-03-29T00:25:11.526Z,10.66
2017-03-29T00:25:15.955Z,10.67
2017-03-29T00:25:20.151Z,10.66
2017-03-29T00:25:24.582Z,10.67
2017-03-29T00:25:29.012Z,10.67
2017-03-29T00:25:33.439Z,10.66
2017-03-29T00:25:37.872Z,10.66
2017-03-29T00:25:42.213Z,10.67
2017-03-29T00:25:46.641Z,10.66
2017-03-29T00:25:51.073Z,10.66
2017-03-29T00:25:55.303Z,10.67
2017-03-29T00:25:59.495Z,10.66
2017-03-29T00:26:04.079Z,10.67
2017-03-29T00:26:08.400Z,10.66
2017-03-29T00:26:12.828Z,10.67
2017-03-29T00:26:17.258Z,10.67
2017-03-29T00:26:21.571Z,10.67
2017-03-29T00:26:25.888Z,10.66
2017-03-29T00:26:30.081Z,10.66
2017-03-29T00:26:34.392Z,10.67
2017-03-29T00:26:38.819Z,10.66
2017-03-29T00:26:43.129Z,10.66
2017-03-29T00:26:47.556Z,10.66
2017-03-29T00:26:51.859Z,10.67
2017-03-29T00:26:56.288Z,10.66
2017-03-29T00:27:00.728Z,10.66
2017-03-29T00:27:05.042Z,10.66
2017-03-29T00:27:09.470Z,10.66
2017-03-29T00:27:13.905Z,10.66
2017-03-29T00:27:18.329Z,10.66
2017-03-29T00:27:22.755Z,10.65
2017-03-29T00:27:27.185Z,10.67
2017-03-29T00:27:31.496Z,10.66
2017-03-29T00:27:35.807Z,10.66
2017-03-29T00:27:40.118Z,10.66
2017-03-29T00:27:44.311Z,10.66
2017-03-29T00:27:48.631Z,10.66
2017-03-29T00:27:52.937Z,10.66
2017-03-29T00:27:57.356Z,10.65
2017-03-29T00:28:01.786Z,10.66
2017-03-29T00:28:06.122Z,10.65
2017-03-29T00:28:10.544Z,10.65
2017-03-29T00:28:14.972Z,10.66
2017-03-29T00:28:19.401Z,10.66
2017-03-29T00:28:23.713Z,10.66
2017-03-29T00:28:28.140Z,10.65
2017-03-29T00:28:32.565Z,10.65
2017-03-29T00:28:36.986Z,10.64
2017-03-29T00:28:41.298Z,10.65
2017-03-29T00:28:45.603Z,10.65
2017-03-29T00:28:50.028Z,10.65
2017-03-29T00:28:54.457Z,10.65
2017-03-29T00:28:58.882Z,10.65
2017-03-29T00:29:03.306Z,10.64
2017-03-29T00:29:07.725Z,10.65
2017-03-29T00:29:12.160Z,10.64
2017-03-29T00:29:16.588Z,10.65
2017-03-29T00:29:21.009Z,10.64
2017-03-29T00:29:25.320Z,10.65
2017-03-29T00:29:29.633Z,10.64
2017-03-29T00:29:34.055Z,10.65
2017-03-29T00:29:38.476Z,10.65
2017-03-29T00:29:42.899Z,10.65
2017-03-29T00:29:47.332Z,10.65
2017-03-29T00:29:51.760Z,10.65
2017-03-29T00:29:56.179Z,10.65
2017-03-29T00:30:00.483Z,10.64
2017-03-29T00:30:04.795Z,10.64
2017-03-29T00:30:09.218Z,10.65
2017-03-29T00:30:13.640Z,10.65
2017-03-29T00:30:18.069Z,10.64
2017-03-29T00:30:22.408Z,10.65
2017-03-29T00:30:26.836Z,10.64
2017-03-29T00:30:31.154Z,10.65
2017-03-29T00:30:35.586Z,10.63
2017-03-29T00:30:39.910Z,10.64
2017-03-29T00:30:44.331Z,10.64
2017-03-29T00:30:48.757Z,10.64
2017-03-29T00:30:53.189Z,10.64
2017-03-29T00:30:57.612Z,10.64
2017-03-29T00:31:02.121Z,10.64
2017-03-29T00:31:06.543Z,10.64
2017-03-29T00:31:10.974Z,10.63
2017-03-29T00:31:15.162Z,10.63
2017-03-29T00:31:19.601Z,10.64
2017-03-29T00:31:24.028Z,10.64
2017-03-29T00:31:28.456Z,10.63
2017-03-29T00:31:32.883Z,10.63
2017-03-29T00:31:37.189Z,10.63
2017-03-29T00:31:41.627Z,10.63
2017-03-29T00:31:46.097Z,10.64
2017-03-29T00:31:50.528Z,10.63
2017-03-29T00:31:54.954Z,10.62
2017-03-29T00:31:59.147Z,10.63
2017-03-29T00:32:03.387Z,10.63
2017-03-29T00:32:07.815Z,10.62
2017-03-29T00:32:12.127Z,10.63
2017-03-29T00:32:16.556Z,10.62
2017-03-29T00:32:20.986Z,10.64
2017-03-29T00:32:25.414Z,10.62
2017-03-29T00:32:29.858Z,10.63
2017-03-29T00:32:34.283Z,10.63
2017-03-29T00:32:38.715Z,10.63
2017-03-29T00:32:43.140Z,10.64
2017-03-29T00:32:47.451Z,10.63
2017-03-29T00:32:51.885Z,10.62
2017-03-29T00:32:56.310Z,10.62
2017-03-29T00:33:00.612Z,10.63
2017-03-29T00:33:05.075Z,10.62
2017-03-29T00:33:09.500Z,10.63
2017-03-29T00:33:13.927Z,10.63
2017-03-29T00:33:18.352Z,10.62
2017-03-29T00:33:22.776Z,10.62
2017-03-29T00:33:27.199Z,10.63
2017-03-29T00:33:31.510Z,10.62
2017-03-29T00:33:35.822Z,10.63
2017-03-29T00:33:40.281Z,10.62
2017-03-29T00:33:44.585Z,10.62
2017-03-29T00:33:48.900Z,10.61
2017-03-29T00:33:53.330Z,10.61
2017-03-29T00:33:57.634Z,10.62
2017-03-29T00:34:02.062Z,10.61
2017-03-29T00:34:06.383Z,10.62
2017-03-29T00:34:10.573Z,10.61
2017-03-29T00:34:15.004Z,10.61
2017-03-29T00:34:19.438Z,10.61
2017-03-29T00:34:23.748Z,10.61
2017-03-29T00:34:28.060Z,10.6
2017-03-29T00:34:32.369Z,10.61
2017-03-29T00:34:36.794Z,10.6
2017-03-29T00:34:41.220Z,10.61
2017-03-29T00:34:45.647Z,10.61
2017-03-29T00:34:49.964Z,10.6
2017-03-29T00:34:54.274Z,10.61
2017-03-29T00:34:58.710Z,10.61
2017-03-29T00:35:03.145Z,10.61
2017-03-29T00:35:07.459Z,10.6
2017-03-29T00:35:11.884Z,10.6
2017-03-29T00:35:16.318Z,10.6
2017-03-29T00:35:20.784Z,10.61
2017-03-29T00:35:25.088Z,10.6
2017-03-29T00:35:29.395Z,10.6
2017-03-29T00:35:33.846Z,10.6
2017-03-29T00:35:38.277Z,10.6
2017-03-29T00:35:42.702Z,10.6
2017-03-29T00:35:47.008Z,10.59
2017-03-29T00:35:51.440Z,10.6
2017-03-29T00:35:55.894Z,10.59
2017-03-29T00:36:00.317Z,10.6
2017-03-29T00:36:04.845Z,10.6
2017-03-29T00:36:09.174Z,10.59
2017-03-29T00:36:13.604Z,10.6
2017-03-29T00:36:18.028Z,10.59
2017-03-29T00:36:22.449Z,10.6
2017-03-29T00:36:26.879Z,10.59
2017-03-29T00:36:31.069Z,10.6
2017-03-29T00:36:35.259Z,10.59
2017-03-29T00:36:39.562Z,10.59
2017-03-29T00:36:43.993Z,10.59
2017-03-29T00:36:48.344Z,10.59
2017-03-29T00:36:52.772Z,10.59
2017-03-29T00:36:57.085Z,10.59
2017-03-29T00:37:01.396Z,10.59
2017-03-29T00:37:05.905Z,10.58
2017-03-29T00:37:10.332Z,10.59
2017-03-29T00:37:14.765Z,10.59
2017-03-29T00:37:19.232Z,10.59
2017-03-29T00:37:23.654Z,10.59
2017-03-29T00:37:28.080Z,10.59
2017-03-29T00:37:32.519Z,10.59
2017-03-29T00:37:36.855Z,10.58
2017-03-29T00:37:41.280Z,10.58
2017-03-29T00:37:45.720Z,10.58
2017-03-29T00:37:50.153Z,10.58
2017-03-29T00:37:54.577Z,10.58
2017-03-29T00:37:59.006Z,10.59
2017-03-29T00:38:03.542Z,10.58
2017-03-29T00:38:07.971Z,10.58
2017-03-29T00:38:12.278Z,10.58
2017-03-29T00:38:16.704Z,10.57
2017-03-29T00:38:21.131Z,10.57
2017-03-29T00:38:25.559Z,10.58
2017-03-29T00:38:29.871Z,10.58
2017-03-29T00:38:34.179Z,10.57
2017-03-29T00:38:38.604Z,10.57
2017-03-29T00:38:43.030Z,10.57
2017-03-29T00:38:47.458Z,10.57
2017-03-29T00:38:51.919Z,10.57
2017-03-29T00:38:56.345Z,10.58
2017-03-29T00:39:00.769Z,10.57
2017-03-29T00:39:05.233Z,10.57
2017-03-29T00:39:09.653Z,10.57
2017-03-29T00:39:14.083Z,10.57
2017-03-29T00:39:18.535Z,10.57
2017-03-29T00:39:22.970Z,10.56
2017-03-29T00:39:27.391Z,10.56
2017-03-29T00:39:31.814Z,10.57
2017-03-29T00:39:36.242Z,10.56
2017-03-29T00:39:40.707Z,10.57
2017-03-29T00:39:45.131Z,10.57
2017-03-29T00:39:49.556Z,10.56
2017-03-29T00:39:53.981Z,10.56
2017-03-29T00:39:58.414Z,10.56
2017-03-29T00:40:02.841Z,10.56
2017-03-29T00:40:07.032Z,10.55
2017-03-29T00:40:11.340Z,10.55
2017-03-29T00:40:15.766Z,10.55
2017-03-29T00:40:20.194Z,10.56
2017-03-29T00:40:24.497Z,10.55
2017-03-29T00:40:28.926Z,10.55
2017-03-29T00:40:33.238Z,10.56
2017-03-29T00:40:37.667Z,10.55
2017-03-29T00:40:42.093Z,10.56
2017-03-29T00:40:46.400Z,10.55
2017-03-29T00:40:50.824Z,10.54
2017-03-29T00:40:55.258Z,10.55
2017-03-29T00:40:59.687Z,10.55
2017-03-29T00:41:04.111Z,10.54
2017-03-29T00:41:08.543Z,10.54
2017-03-29T00:41:12.850Z,10.55
2017-03-29T00:41:17.280Z,10.54
2017-03-29T00:41:21.599Z,10.53
2017-03-29T00:41:25.788Z,10.54
2017-03-29T00:41:30.094Z,10.54
2017-03-29T00:41:34.560Z,10.54
2017-03-29T00:41:38.987Z,10.53
2017-03-29T00:41:43.413Z,10.53
2017-03-29T00:41:47.726Z,10.54
2017-03-29T00:41:52.038Z,10.53
2017-03-29T00:41:56.461Z,10.54
2017-03-29T00:42:00.889Z,10.53
2017-03-29T00:42:05.573Z,10.53
2017-03-29T00:42:10.038Z,10.53
2017-03-29T00:42:14.464Z,10.52
2017-03-29T00:42:18.778Z,10.53
2017-03-29T00:42:23.081Z,10.54
2017-03-29T00:42:27.425Z,10.52
2017-03-29T00:42:31.851Z,10.53
2017-03-29T00:42:36.275Z,10.52
2017-03-29T00:42:40.703Z,10.53
2017-03-29T00:42:45.018Z,10.52
2017-03-29T00:42:49.475Z,10.52
2017-03-29T00:42:53.907Z,10.52
2017-03-29T00:42:58.331Z,10.53
2017-03-29T00:43:02.913Z,10.52
2017-03-29T00:43:07.220Z,10.52
2017-03-29T00:43:11.641Z,10.52
2017-03-29T00:43:16.066Z,10.52
2017-03-29T00:43:20.500Z,10.52
2017-03-29T00:43:24.930Z,10.52
2017-03-29T00:43:29.248Z,10.52
2017-03-29T00:43:33.556Z,10.51
2017-03-29T00:43:37.893Z,10.51
2017-03-29T00:43:42.197Z,10.51
2017-03-29T00:43:46.634Z,10.51
2017-03-29T00:43:51.067Z,10.52
2017-03-29T00:43:55.491Z,10.51
2017-03-29T00:43:59.803Z,10.52
2017-03-29T00:44:04.227Z,10.51
2017-03-29T00:44:08.412Z,10.51
2017-03-29T00:44:12.726Z,10.51
2017-03-29T00:44:17.154Z,10.51
2017-03-29T00:44:21.577Z,10.51
2017-03-29T00:44:25.889Z,10.5
2017-03-29T00:44:30.326Z,10.5
2017-03-29T00:44:34.756Z,10.5
2017-03-29T00:44:39.183Z,10.51
2017-03-29T00:44:43.370Z,10.5
2017-03-29T00:44:47.681Z,10.5
2017-03-29T00:44:52.115Z,10.5
2017-03-29T00:44:56.552Z,10.5
2017-03-29T00:45:00.979Z,10.5
2017-03-29T00:45:05.409Z,10.5
2017-03-29T00:45:09.846Z,10.49
2017-03-29T00:45:14.280Z,10.49
2017-03-29T00:45:18.588Z,10.5
2017-03-29T00:45:23.018Z,10.49
2017-03-29T00:45:27.448Z,10.49
2017-03-29T00:45:31.522Z,10.5
2017-03-29T00:45:35.943Z,10.49
2017-03-29T00:45:40.369Z,10.49
2017-03-29T00:45:44.796Z,10.49
2017-03-29T00:45:49.115Z,10.49
2017-03-29T00:45:53.540Z,10.49
2017-03-29T00:45:57.966Z,10.49
2017-03-29T00:46:02.398Z,10.49
2017-03-29T00:46:06.830Z,10.49
2017-03-29T00:46:11.260Z,10.48
2017-03-29T00:46:15.691Z,10.49
2017-03-29T00:46:20.114Z,10.48
2017-03-29T00:46:24.548Z,10.49
2017-03-29T00:46:28.857Z,10.49
2017-03-29T00:46:33.280Z,10.49
2017-03-29T00:46:37.704Z,10.49
2017-03-29T00:46:42.129Z,10.49
2017-03-29T00:46:46.553Z,10.48
2017-03-29T00:46:50.984Z,10.48
2017-03-29T00:46:55.410Z,10.48
2017-03-29T00:46:59.837Z,10.49
2017-03-29T00:47:04.178Z,10.48
2017-03-29T00:47:08.252Z,10.47
2017-03-29T00:47:12.676Z,10.49
2017-03-29T00:47:17.112Z,10.49
2017-03-29T00:47:21.534Z,10.48
2017-03-29T00:47:25.843Z,10.49
2017-03-29T00:47:30.267Z,10.48
2017-03-29T00:47:34.697Z,10.49
2017-03-29T00:47:39.120Z,10.49
2017-03-29T00:47:43.551Z,10.48
2017-03-29T00:47:47.868Z,10.48
2017-03-29T00:47:52.289Z,10.48
2017-03-29T00:47:56.712Z,10.48
2017-03-29T00:48:01.145Z,10.48
2017-03-29T00:48:05.577Z,10.48
2017-03-29T00:48:09.760Z,10.48
2017-03-29T00:48:14.182Z,10.48
2017-03-29T00:48:18.609Z,10.47
2017-03-29T00:48:23.035Z,10.48
2017-03-29T00:48:27.461Z,10.48
2017-03-29T00:48:31.762Z,10.48
2017-03-29T00:48:36.076Z,10.48
2017-03-29T00:48:40.528Z,10.48
2017-03-29T00:48:44.951Z,10.48
2017-03-29T00:48:49.381Z,10.48
2017-03-29T00:48:53.838Z,10.48
2017-03-29T00:48:58.267Z,10.48
2017-03-29T00:49:02.698Z,10.48
2017-03-29T00:49:07.007Z,10.48
2017-03-29T00:49:11.211Z,10.48
2017-03-29T00:49:15.685Z,10.49
2017-03-29T00:49:19.897Z,10.47
2017-03-29T00:49:24.329Z,10.48
2017-03-29T00:49:28.750Z,10.48
2017-03-29T00:49:33.179Z,10.48
2017-03-29T00:49:37.603Z,10.48
2017-03-29T00:49:42.037Z,10.47
2017-03-29T00:49:46.349Z,10.48
2017-03-29T00:49:50.776Z,10.47
2017-03-29T00:49:55.199Z,10.48
2017-03-29T00:49:59.632Z,10.48
2017-03-29T00:50:03.999Z,10.47
2017-03-29T00:50:08.306Z,10.47
2017-03-29T00:50:12.621Z,10.48
2017-03-29T00:50:17.049Z,10.47
2017-03-29T00:50:21.482Z,10.48
2017-03-29T00:50:25.910Z,10.47
2017-03-29T00:50:30.334Z,10.47
2017-03-29T00:50:34.651Z,10.48
2017-03-29T00:50:39.118Z,10.47
2017-03-29T00:50:43.434Z,10.47
2017-03-29T00:50:47.742Z,10.47
2017-03-29T00:50:52.182Z,10.47
2017-03-29T00:50:56.644Z,10.47
2017-03-29T00:51:01.077Z,10.47
2017-03-29T00:51:05.584Z,10.47
2017-03-29T00:51:10.020Z,10.46
2017-03-29T00:51:14.451Z,10.47
2017-03-29T00:51:18.874Z,10.47
2017-03-29T00:51:23.299Z,10.47
2017-03-29T00:51:27.608Z,10.47
2017-03-29T00:51:32.044Z,10.47
2017-03-29T00:51:36.473Z,10.46
2017-03-29T00:51:40.780Z,10.47
2017-03-29T00:51:45.216Z,10.47
2017-03-29T00:51:49.535Z,10.47
2017-03-29T00:51:53.969Z,10.47
2017-03-29T00:51:58.282Z,10.47
2017-03-29T00:52:02.861Z,10.46
2017-03-29T00:52:07.053Z,10.47
2017-03-29T00:52:11.481Z,10.46
2017-03-29T00:52:15.909Z,10.46
2017-03-29T00:52:20.370Z,10.46
2017-03-29T00:52:24.792Z,10.46
2017-03-29T00:52:29.219Z,10.46
2017-03-29T00:52:33.648Z,10.46
2017-03-29T00:52:38.079Z,10.46
2017-03-29T00:52:42.391Z,10.46
2017-03-29T00:52:46.813Z,10.46
2017-03-29T00:52:51.243Z,10.46
2017-03-29T00:52:55.671Z,10.45
2017-03-29T00:53:00.098Z,10.45
2017-03-29T00:53:04.526Z,10.46
2017-03-29T00:53:08.961Z,10.45
2017-03-29T00:53:13.388Z,10.45
2017-03-29T00:53:17.819Z,10.46
2017-03-29T00:53:22.255Z,10.45
2017-03-29T00:53:26.681Z,10.45
2017-03-29T00:53:30.986Z,10.45
2017-03-29T00:53:35.414Z,10.45
2017-03-29T00:53:39.727Z,10.45
2017-03-29T00:53:44.169Z,10.45
2017-03-29T00:53:48.361Z,10.45
2017-03-29T00:53:52.780Z,10.44
2017-03-29T00:53:57.209Z,10.45
2017-03-29T00:54:01.634Z,10.45
2017-03-29T00:54:06.311Z,10.45
2017-03-29T00:54:10.743Z,10.44
2017-03-29T00:54:15.057Z,10.44
2017-03-29T00:54:19.477Z,10.44
2017-03-29T00:54:23.906Z,10.44
2017-03-29T00:54:28.355Z,10.44
2017-03-29T00:54:32.793Z,10.44
2017-03-29T00:54:37.106Z,10.44
2017-03-29T00:54:41.532Z,10.44
2017-03-29T00:54:45.848Z,10.43
2017-03-29T00:54:50.154Z,10.44
2017-03-29T00:54:54.585Z,10.44
2017-03-29T00:54:59.013Z,10.44
2017-03-29T00:55:03.444Z,10.44
2017-03-29T00:55:07.869Z,10.43
2017-03-29T00:55:12.296Z,10.43
2017-03-29T00:55:16.729Z,10.43
2017-03-29T00:55:21.035Z,10.44
2017-03-29T00:55:25.225Z,10.44
2017-03-29T00:55:29.658Z,10.44
2017-03-29T00:55:34.085Z,10.43
2017-03-29T00:55:38.510Z,10.43
2017-03-29T00:55:42.941Z,10.43
2017-03-29T00:55:47.368Z,10.41
2017-03-29T00:55:51.797Z,10.43
2017-03-29T00:55:56.223Z,10.42
2017-03-29T00:56:00.648Z,10.42
2017-03-29T00:56:05.073Z,10.42
2017-03-29T00:56:09.276Z,10.42
2017-03-29T00:56:13.587Z,10.42
2017-03-29T00:56:18.012Z,10.42
2017-03-29T00:56:22.318Z,10.42
2017-03-29T00:56:26.752Z,10.41
2017-03-29T00:56:31.178Z,10.41